createdAt,value
2022-10-30T00:01:37.544Z,7.97
2022-10-30T00:04:04.487Z,7.94
2022-10-30T00:06:31.104Z,8.09
2022-10-30T00:08:57.716Z,8.10
2022-10-30T00:11:24.391Z,8.09
2022-10-30T00:13:51.035Z,7.98
2022-10-30T00:16:18.233Z,7.97
2022-10-30T00:18:44.913Z,7.95
2022-10-30T00:21:14.288Z,8.01
2022-10-30T00:23:56.058Z,8.06
2022-10-30T00:26:23.935Z,8.09
2022-10-30T00:28:53.000Z,8.08
2022-10-30T00:31:20.083Z,8.09
2022-10-30T00:33:51.535Z,8.05
2022-10-30T00:36:18.729Z,8.10
2022-10-30T00:38:45.496Z,8.03
2022-10-30T00:41:18.163Z,7.99
2022-10-30T00:43:45.251Z,8.00
2022-10-30T00:46:25.696Z,7.97
2022-10-30T00:48:58.081Z,8.05
2022-10-30T00:51:28.021Z,8.03
2022-10-30T00:53:57.919Z,8.09
2022-10-30T00:56:24.797Z,7.96
2022-10-30T00:58:57.331Z,7.92
2022-10-30T01:01:26.894Z,7.93
2022-10-30T01:03:57.593Z,7.91
2022-10-30T01:06:25.126Z,7.92
2022-10-30T01:08:57.029Z,7.92
2022-10-30T01:11:26.685Z,7.90
2022-10-30T01:13:55.336Z,7.88
2022-10-30T01:16:46.179Z,7.89
2022-10-30T01:19:14.836Z,7.84
2022-10-30T01:21:57.144Z,7.79
2022-10-30T01:24:34.035Z,7.81
2022-10-30T01:27:23.816Z,7.88
2022-10-30T01:29:56.313Z,7.95
2022-10-30T01:32:54.836Z,7.92
2022-10-30T01:35:28.474Z,7.87
2022-10-30T01:38:03.566Z,7.89
2022-10-30T01:40:30.293Z,7.84
2022-10-30T01:42:58.528Z,7.89
2022-10-30T01:45:46.178Z,7.90
2022-10-30T01:48:27.383Z,7.89
2022-10-30T01:51:03.026Z,7.87
2022-10-30T01:53:45.111Z,7.81
2022-10-30T01:56:18.827Z,7.84
2022-10-30T01:58:55.031Z,7.83
2022-10-30T02:01:23.843Z,7.82
2022-10-30T02:03:51.590Z,7.81
2022-10-30T02:06:18.369Z,7.78
2022-10-30T02:08:45.007Z,7.83
2022-10-30T02:11:12.321Z,7.85
2022-10-30T02:13:39.137Z,7.88
2022-10-30T02:16:06.554Z,7.95
2022-10-30T02:18:33.427Z,7.98
2022-10-30T02:21:00.298Z,7.87
2022-10-30T02:23:26.967Z,7.85
2022-10-30T02:25:53.663Z,7.87
2022-10-30T02:28:20.312Z,7.88
2022-10-30T02:30:46.962Z,7.83
2022-10-30T02:33:13.699Z,7.86
2022-10-30T02:35:40.470Z,7.86
2022-10-30T02:38:07.132Z,7.87
2022-10-30T02:40:33.787Z,7.86
2022-10-30T02:43:00.442Z,7.88
2022-10-30T02:45:27.087Z,7.86
2022-10-30T02:47:53.786Z,7.86
2022-10-30T02:50:20.438Z,7.86
2022-10-30T02:52:47.071Z,7.79
2022-10-30T02:55:13.699Z,7.80
2022-10-30T02:57:40.298Z,7.71
2022-10-30T03:00:07.580Z,7.77
2022-10-30T03:02:34.242Z,7.77
2022-10-30T03:05:04.569Z,7.72
2022-10-30T03:07:31.247Z,7.75
2022-10-30T03:09:57.875Z,7.71
2022-10-30T03:12:24.611Z,7.72
2022-10-30T03:14:54.544Z,7.71
2022-10-30T03:17:21.181Z,7.74
2022-10-30T03:19:47.821Z,7.74
2022-10-30T03:22:14.438Z,7.77
2022-10-30T03:24:41.091Z,7.78
2022-10-30T03:27:07.731Z,7.80
2022-10-30T03:29:34.358Z,7.84
2022-10-30T03:32:00.996Z,7.81
2022-10-30T03:34:27.853Z,7.84
2022-10-30T03:36:54.953Z,7.78
2022-10-30T03:39:21.583Z,7.76
2022-10-30T03:41:48.325Z,7.73
2022-10-30T03:44:14.996Z,7.72
2022-10-30T03:46:41.642Z,7.68
2022-10-30T03:49:08.281Z,7.71
2022-10-30T03:51:34.930Z,7.71
2022-10-30T03:54:01.549Z,7.71
2022-10-30T03:56:28.231Z,7.70
2022-10-30T03:58:54.890Z,7.71
2022-10-30T04:01:21.647Z,7.72
2022-10-30T04:03:48.408Z,7.75
2022-10-30T04:06:15.035Z,7.83
2022-10-30T04:08:41.701Z,7.82
2022-10-30T04:11:11.181Z,7.80
2022-10-30T04:13:37.911Z,7.75
2022-10-30T04:16:06.562Z,7.72
2022-10-30T04:18:33.194Z,7.73
2022-10-30T04:21:00.868Z,7.76
2022-10-30T04:23:27.743Z,7.77
2022-10-30T04:25:54.532Z,7.74
2022-10-30T04:28:21.672Z,7.72
2022-10-30T04:30:48.422Z,7.75
2022-10-30T04:33:15.531Z,7.77
2022-10-30T04:35:43.071Z,7.79
2022-10-30T04:38:12.666Z,7.81
2022-10-30T04:40:41.457Z,7.82
2022-10-30T04:43:09.221Z,7.80
2022-10-30T04:45:37.052Z,7.83
2022-10-30T04:48:12.574Z,7.85
2022-10-30T04:50:39.498Z,7.78
2022-10-30T04:53:10.430Z,7.80
2022-10-30T04:55:37.079Z,7.85
2022-10-30T04:58:05.194Z,7.80
2022-10-30T05:00:32.217Z,7.70
2022-10-30T05:03:00.964Z,7.66
2022-10-30T05:05:29.994Z,7.66
2022-10-30T05:07:57.258Z,7.75
2022-10-30T05:10:24.301Z,7.70
2022-10-30T05:12:53.502Z,7.67
2022-10-30T05:15:20.373Z,7.71
2022-10-30T05:17:51.731Z,7.67
2022-10-30T05:20:19.096Z,7.73
2022-10-30T05:22:46.153Z,7.74
2022-10-30T05:25:12.870Z,7.76
2022-10-30T05:27:39.531Z,7.72
2022-10-30T05:30:06.731Z,7.75
2022-10-30T05:32:33.757Z,7.79
2022-10-30T05:35:00.392Z,7.81
2022-10-30T05:37:27.275Z,7.85
2022-10-30T05:39:53.877Z,7.84
2022-10-30T05:42:20.617Z,7.80
2022-10-30T05:45:00.232Z,7.81
2022-10-30T05:47:27.933Z,7.81
2022-10-30T05:49:54.601Z,7.82
2022-10-30T05:52:21.317Z,7.80
2022-10-30T05:54:49.695Z,7.72
2022-10-30T05:57:16.368Z,7.86
2022-10-30T05:59:44.007Z,7.77
2022-10-30T06:02:10.683Z,7.64
2022-10-30T06:04:37.469Z,7.51
2022-10-30T06:07:04.210Z,7.52
2022-10-30T06:09:30.791Z,7.41
2022-10-30T06:11:58.592Z,7.37
2022-10-30T06:14:25.243Z,7.40
2022-10-30T06:16:51.918Z,7.44
2022-10-30T06:19:19.209Z,7.42
2022-10-30T06:21:46.806Z,7.42
2022-10-30T06:24:14.353Z,7.43
2022-10-30T06:26:42.272Z,7.44
2022-10-30T06:29:08.969Z,7.45
2022-10-30T06:31:35.585Z,7.39
2022-10-30T06:34:02.253Z,7.37
2022-10-30T06:36:29.013Z,7.38
2022-10-30T06:38:55.709Z,7.40
2022-10-30T06:41:29.080Z,7.49
2022-10-30T06:43:56.897Z,7.54
2022-10-30T06:46:26.931Z,7.55
2022-10-30T06:48:57.391Z,7.59
2022-10-30T06:51:24.052Z,7.59
2022-10-30T06:53:50.710Z,7.59
2022-10-30T06:56:17.287Z,7.61
2022-10-30T06:58:43.985Z,7.61
2022-10-30T07:01:10.698Z,7.65
2022-10-30T07:03:37.429Z,7.65
2022-10-30T07:06:07.678Z,7.70
2022-10-30T07:08:34.325Z,7.66
2022-10-30T07:11:00.965Z,7.68
2022-10-30T07:13:27.556Z,7.68
2022-10-30T07:15:57.466Z,7.70
2022-10-30T07:18:24.088Z,7.74
2022-10-30T07:20:55.443Z,7.74
2022-10-30T07:23:22.318Z,7.74
2022-10-30T07:25:49.026Z,7.75
2022-10-30T07:28:15.705Z,7.73
2022-10-30T07:30:42.380Z,7.79
2022-10-30T07:33:10.182Z,7.80
2022-10-30T07:35:36.995Z,7.81
2022-10-30T07:38:06.730Z,7.86
2022-10-30T07:40:34.540Z,7.91
2022-10-30T07:43:03.390Z,7.96
2022-10-30T07:45:31.075Z,7.89
2022-10-30T07:47:58.228Z,7.86
2022-10-30T07:50:25.127Z,7.78
2022-10-30T07:52:51.845Z,7.80
2022-10-30T07:55:18.733Z,7.84
2022-10-30T07:57:45.382Z,7.84
2022-10-30T08:00:14.005Z,7.89
2022-10-30T08:02:41.098Z,7.94
2022-10-30T08:05:09.191Z,7.93
2022-10-30T08:07:37.927Z,7.93
2022-10-30T08:10:05.904Z,7.92
2022-10-30T08:12:34.302Z,7.93
2022-10-30T08:15:01.172Z,8.09
2022-10-30T08:17:28.397Z,7.97
2022-10-30T08:19:55.519Z,8.09
2022-10-30T08:22:22.185Z,8.01
2022-10-30T08:24:48.901Z,8.11
2022-10-30T08:27:15.639Z,8.05
2022-10-30T08:29:42.339Z,8.03
2022-10-30T08:32:09.970Z,8.14
2022-10-30T08:34:36.631Z,8.29
2022-10-30T08:37:03.331Z,8.16
2022-10-30T08:39:30.007Z,8.13
2022-10-30T08:41:59.821Z,8.20
2022-10-30T08:44:26.988Z,8.28
2022-10-30T08:46:53.648Z,8.26
2022-10-30T08:49:20.395Z,8.25
2022-10-30T08:51:47.179Z,8.40
2022-10-30T08:54:13.792Z,8.42
2022-10-30T08:56:40.418Z,8.45
2022-10-30T08:59:07.103Z,8.67
2022-10-30T09:01:33.854Z,8.78
2022-10-30T09:04:00.552Z,8.84
2022-10-30T09:06:27.198Z,8.85
2022-10-30T09:08:53.855Z,8.80
2022-10-30T09:11:20.505Z,8.96
2022-10-30T09:13:49.336Z,8.94
2022-10-30T09:16:15.982Z,8.98
2022-10-30T09:18:42.698Z,9.01
2022-10-30T09:21:09.381Z,8.98
2022-10-30T09:23:36.055Z,8.92
2022-10-30T09:26:02.793Z,9.11
2022-10-30T09:28:29.464Z,9.29
2022-10-30T09:31:01.541Z,9.21
2022-10-30T09:33:28.391Z,9.40
2022-10-30T09:35:55.006Z,9.46
2022-10-30T09:38:21.664Z,9.56
2022-10-30T09:41:05.312Z,9.46
2022-10-30T09:43:52.095Z,9.48
2022-10-30T09:46:20.114Z,9.57
2022-10-30T09:49:11.945Z,9.80
2022-10-30T09:52:13.705Z,10.17
2022-10-30T09:54:56.806Z,10.49
2022-10-30T09:57:32.580Z,10.66
2022-10-30T10:00:03.847Z,10.87
2022-10-30T10:02:35.632Z,11.17
2022-10-30T10:05:14.516Z,11.51
2022-10-30T10:07:46.827Z,11.59
2022-10-30T10:10:22.410Z,11.75
2022-10-30T10:12:55.743Z,12.10
2022-10-30T10:15:48.779Z,12.30
2022-10-30T10:18:25.720Z,12.62
2022-10-30T10:20:57.649Z,12.56
2022-10-30T10:23:35.778Z,12.65
2022-10-30T10:26:14.839Z,12.93
2022-10-30T10:28:59.695Z,13.14
2022-10-30T10:31:43.355Z,13.25
2022-10-30T10:34:20.993Z,13.50
2022-10-30T10:37:06.032Z,13.71
2022-10-30T10:40:03.160Z,13.84
2022-10-30T10:42:46.206Z,13.85
2022-10-30T10:45:12.840Z,13.87
2022-10-30T10:48:10.092Z,14.09
2022-10-30T10:50:47.137Z,14.14
2022-10-30T10:53:44.355Z,14.35
2022-10-30T10:56:11.295Z,14.50
2022-10-30T10:58:51.695Z,14.65
2022-10-30T11:01:23.678Z,14.64
2022-10-30T11:03:57.835Z,14.70
2022-10-30T11:06:27.907Z,14.73
2022-10-30T11:09:12.793Z,14.79
2022-10-30T11:11:39.456Z,14.92
2022-10-30T11:14:15.711Z,15.08
2022-10-30T11:17:00.721Z,15.12
2022-10-30T11:19:30.330Z,15.18
2022-10-30T11:21:58.330Z,15.28
2022-10-30T11:24:31.206Z,15.38
2022-10-30T11:27:15.503Z,15.33
2022-10-30T11:29:49.431Z,15.44
2022-10-30T11:32:22.639Z,15.53
2022-10-30T11:35:13.498Z,15.58
2022-10-30T11:37:43.045Z,15.68
2022-10-30T11:40:20.398Z,15.79
2022-10-30T11:42:59.617Z,15.79
2022-10-30T11:45:39.926Z,15.91
2022-10-30T11:48:19.906Z,16.04
2022-10-30T11:50:49.306Z,16.20
2022-10-30T11:53:23.016Z,16.17
2022-10-30T11:55:50.847Z,16.32
2022-10-30T11:58:35.766Z,16.34
2022-10-30T12:01:12.236Z,16.38
2022-10-30T12:03:40.925Z,16.37
2022-10-30T12:06:09.355Z,16.49
2022-10-30T12:08:36.080Z,16.57
2022-10-30T12:11:05.492Z,16.74
2022-10-30T12:13:39.184Z,16.79
2022-10-30T12:16:14.682Z,16.84
2022-10-30T12:18:42.932Z,16.95
2022-10-30T12:21:10.263Z,16.98
2022-10-30T12:23:38.140Z,17.06
2022-10-30T12:26:11.032Z,17.15
2022-10-30T12:28:39.268Z,17.12
2022-10-30T12:31:19.518Z,17.15
2022-10-30T12:33:58.566Z,17.26
2022-10-30T12:36:31.032Z,17.33
2022-10-30T12:39:03.679Z,17.43
2022-10-30T12:41:51.230Z,17.56
2022-10-30T12:44:26.995Z,17.44
2022-10-30T12:47:01.306Z,17.62
2022-10-30T12:49:34.139Z,17.60
2022-10-30T12:52:07.546Z,17.51
2022-10-30T12:54:42.736Z,17.66
2022-10-30T12:57:22.673Z,17.76
2022-10-30T13:00:10.006Z,17.74
2022-10-30T13:03:07.104Z,17.89
2022-10-30T13:05:40.288Z,17.95
2022-10-30T13:08:22.339Z,17.98
2022-10-30T13:10:54.869Z,18.13
2022-10-30T13:13:29.142Z,18.23
2022-10-30T13:15:58.672Z,18.23
2022-10-30T13:18:27.240Z,18.33
2022-10-30T13:21:08.495Z,18.37
2022-10-30T13:23:46.410Z,18.36
2022-10-30T13:26:28.896Z,18.37
2022-10-30T13:29:12.020Z,18.30
2022-10-30T13:32:09.137Z,18.45
2022-10-30T13:34:51.204Z,18.58
2022-10-30T13:37:27.520Z,18.54
2022-10-30T13:40:24.748Z,18.63
2022-10-30T13:43:26.661Z,18.59
2022-10-30T13:46:17.935Z,18.69
2022-10-30T13:49:10.161Z,18.78
2022-10-30T13:51:53.157Z,18.79
2022-10-30T13:54:38.789Z,18.55
2022-10-30T13:57:23.821Z,18.45
2022-10-30T14:00:11.504Z,18.30
2022-10-30T14:02:53.545Z,18.27
2022-10-30T14:05:33.784Z,18.33
2022-10-30T14:08:15.670Z,18.43
2022-10-30T14:10:42.268Z,18.53
2022-10-30T14:13:26.963Z,18.53
2022-10-30T14:15:55.395Z,18.45
2022-10-30T14:18:25.712Z,18.52
2022-10-30T14:20:54.412Z,18.69
2022-10-30T14:23:22.845Z,18.71
2022-10-30T14:26:05.902Z,18.71
2022-10-30T14:28:38.838Z,18.75
2022-10-30T14:31:10.297Z,18.76
2022-10-30T14:33:46.313Z,18.64
2022-10-30T14:36:28.351Z,18.39
2022-10-30T14:39:00.392Z,18.24
2022-10-30T14:41:44.915Z,18.09
2022-10-30T14:44:22.844Z,18.12
2022-10-30T14:47:00.818Z,18.08
2022-10-30T14:49:46.559Z,18.17
2022-10-30T14:52:28.453Z,18.12
2022-10-30T14:55:00.049Z,17.92
2022-10-30T14:57:48.247Z,17.70
2022-10-30T15:00:35.121Z,17.50
2022-10-30T15:03:15.540Z,17.29
2022-10-30T15:06:17.193Z,17.03
2022-10-30T15:08:57.982Z,16.80
2022-10-30T15:11:39.916Z,16.60
2022-10-30T15:14:20.972Z,16.46
2022-10-30T15:16:51.472Z,16.40
2022-10-30T15:19:24.118Z,16.33
2022-10-30T15:21:54.019Z,16.15
2022-10-30T15:24:29.569Z,16.01
2022-10-30T15:27:01.038Z,15.98
2022-10-30T15:29:30.543Z,15.84
2022-10-30T15:32:00.981Z,15.74
2022-10-30T15:34:29.600Z,15.62
2022-10-30T15:36:56.623Z,15.51
2022-10-30T15:39:23.722Z,15.42
2022-10-30T15:41:54.087Z,15.31
2022-10-30T15:44:26.897Z,15.24
2022-10-30T15:46:55.677Z,15.12
2022-10-30T15:49:30.150Z,15.04
2022-10-30T15:51:57.193Z,14.99
2022-10-30T15:54:25.910Z,14.95
2022-10-30T15:57:31.739Z,14.84
2022-10-30T15:59:51.609Z,14.64
2022-10-30T16:02:22.332Z,14.50
2022-10-30T16:04:50.056Z,14.39
2022-10-30T16:07:22.267Z,14.31
2022-10-30T16:10:01.405Z,14.19
2022-10-30T16:12:30.847Z,14.13
2022-10-30T16:15:01.416Z,14.07
2022-10-30T16:17:28.492Z,14.02
2022-10-30T16:20:01.014Z,13.92
2022-10-30T16:22:34.442Z,13.67
2022-10-30T16:25:01.647Z,13.65
2022-10-30T16:27:28.321Z,13.60
2022-10-30T16:29:59.515Z,13.53
2022-10-30T16:32:33.429Z,13.35
2022-10-30T16:35:03.154Z,13.27
2022-10-30T16:37:36.621Z,13.29
2022-10-30T16:40:12.283Z,13.24
2022-10-30T16:42:39.264Z,13.18
2022-10-30T16:45:45.719Z,13.16
2022-10-30T16:48:19.526Z,13.08
2022-10-30T16:50:47.195Z,13.12
2022-10-30T16:53:29.756Z,12.88
2022-10-30T16:55:58.173Z,12.82
2022-10-30T16:58:28.263Z,12.72
2022-10-30T17:01:02.708Z,12.72
2022-10-30T17:03:39.579Z,12.63
2022-10-30T17:06:31.342Z,12.40
2022-10-30T17:09:01.375Z,12.43
2022-10-30T17:11:46.319Z,12.41
2022-10-30T17:14:19.758Z,12.26
2022-10-30T17:16:57.566Z,12.14
2022-10-30T17:19:39.326Z,12.23
2022-10-30T17:22:12.811Z,12.21
2022-10-30T17:24:39.606Z,12.20
2022-10-30T17:27:23.266Z,12.20
2022-10-30T17:29:49.855Z,12.16
2022-10-30T17:32:21.953Z,12.16
2022-10-30T17:35:00.099Z,12.09
2022-10-30T17:37:27.248Z,12.00
2022-10-30T17:39:53.906Z,11.95
2022-10-30T17:42:20.719Z,11.91
2022-10-30T17:44:47.806Z,11.91
2022-10-30T17:47:17.578Z,11.84
2022-10-30T17:49:45.081Z,11.72
2022-10-30T17:52:14.677Z,11.69
2022-10-30T17:54:42.100Z,11.67
2022-10-30T17:57:11.751Z,11.67
2022-10-30T17:59:39.281Z,11.55
2022-10-30T18:02:16.045Z,11.64
2022-10-30T18:04:43.606Z,11.52
2022-10-30T18:07:13.074Z,11.49
2022-10-30T18:09:40.211Z,11.44
2022-10-30T18:12:12.307Z,11.34
2022-10-30T18:14:38.920Z,11.22
2022-10-30T18:17:05.874Z,11.25
2022-10-30T18:19:32.534Z,11.25
2022-10-30T18:21:59.233Z,11.25
2022-10-30T18:24:25.868Z,11.24
2022-10-30T18:26:53.967Z,11.24
2022-10-30T18:29:21.094Z,11.21
2022-10-30T18:31:47.856Z,11.07
2022-10-30T18:34:18.267Z,11.10
2022-10-30T18:36:45.032Z,11.05
2022-10-30T18:39:13.010Z,11.04
2022-10-30T18:41:42.980Z,11.01
2022-10-30T18:44:18.286Z,10.99
2022-10-30T18:46:45.811Z,10.90
2022-10-30T18:49:12.910Z,10.93
2022-10-30T18:51:40.247Z,10.93
2022-10-30T18:54:14.064Z,10.83
2022-10-30T18:56:40.906Z,10.84
2022-10-30T18:59:07.505Z,10.79
2022-10-30T19:01:35.154Z,10.68
2022-10-30T19:04:03.761Z,10.68
2022-10-30T19:06:32.859Z,10.66
2022-10-30T19:09:02.820Z,10.68
2022-10-30T19:11:31.784Z,10.70
2022-10-30T19:13:59.199Z,10.64
2022-10-30T19:16:25.874Z,10.66
2022-10-30T19:18:53.038Z,10.62
2022-10-30T19:21:26.091Z,10.56
2022-10-30T19:23:54.509Z,10.49
2022-10-30T19:26:21.181Z,10.52
2022-10-30T19:28:47.821Z,10.50
2022-10-30T19:31:17.372Z,10.49
2022-10-30T19:33:44.728Z,10.50
2022-10-30T19:36:36.181Z,10.51
2022-10-30T19:39:09.118Z,10.45
2022-10-30T19:41:36.912Z,10.35
2022-10-30T19:44:04.277Z,10.38
2022-10-30T19:46:31.035Z,10.35
2022-10-30T19:48:58.945Z,10.32
2022-10-30T19:51:27.942Z,10.31
2022-10-30T19:53:54.642Z,10.30
2022-10-30T19:56:21.527Z,10.30
2022-10-30T19:58:48.587Z,10.18
2022-10-30T20:01:16.048Z,10.21
2022-10-30T20:03:42.930Z,10.13
2022-10-30T20:06:12.441Z,10.09
2022-10-30T20:08:39.269Z,10.00
2022-10-30T20:11:05.952Z,9.99
2022-10-30T20:13:33.557Z,9.84
2022-10-30T20:16:05.354Z,9.87
2022-10-30T20:18:35.085Z,9.78
2022-10-30T20:21:08.263Z,9.73
2022-10-30T20:23:35.783Z,9.68
2022-10-30T20:26:06.569Z,9.55
2022-10-30T20:28:36.511Z,9.49
2022-10-30T20:31:05.358Z,9.40
2022-10-30T20:33:32.125Z,9.44
2022-10-30T20:35:58.791Z,9.55
2022-10-30T20:38:29.366Z,9.44
2022-10-30T20:40:57.976Z,9.53
2022-10-30T20:43:29.402Z,9.47
2022-10-30T20:45:58.291Z,9.48
2022-10-30T20:48:26.219Z,9.33
2022-10-30T20:50:54.607Z,9.23
2022-10-30T20:53:21.234Z,9.21
2022-10-30T20:55:48.145Z,9.20
2022-10-30T20:58:14.802Z,9.25
2022-10-30T21:00:41.665Z,9.22
2022-10-30T21:03:11.255Z,9.30
2022-10-30T21:05:43.839Z,9.33
2022-10-30T21:08:11.059Z,9.35
2022-10-30T21:10:38.885Z,9.34
2022-10-30T21:13:08.791Z,9.23
2022-10-30T21:15:39.477Z,9.09
2022-10-30T21:18:06.690Z,9.02
2022-10-30T21:20:33.429Z,8.95
2022-10-30T21:23:00.616Z,8.95
2022-10-30T21:25:27.362Z,9.02
2022-10-30T21:27:56.560Z,8.98
2022-10-30T21:30:23.377Z,8.94
2022-10-30T21:32:50.496Z,9.04
2022-10-30T21:35:17.537Z,9.08
2022-10-30T21:37:44.145Z,9.07
2022-10-30T21:40:11.401Z,9.02
2022-10-30T21:42:38.060Z,8.96
2022-10-30T21:45:06.040Z,9.02
2022-10-30T21:47:32.649Z,9.01
2022-10-30T21:49:59.296Z,8.89
2022-10-30T21:52:25.916Z,8.76
2022-10-30T21:54:52.560Z,8.76
2022-10-30T21:57:19.413Z,8.61
2022-10-30T21:59:46.063Z,8.70
2022-10-30T22:02:15.173Z,8.67
2022-10-30T22:04:42.014Z,8.63
2022-10-30T22:07:08.868Z,8.54
2022-10-30T22:09:35.903Z,8.57
2022-10-30T22:12:02.555Z,8.67
2022-10-30T22:14:29.463Z,8.60
2022-10-30T22:16:56.290Z,8.59
2022-10-30T22:19:22.991Z,8.71
2022-10-30T22:21:49.630Z,8.71
2022-10-30T22:24:17.348Z,8.77
2022-10-30T22:26:46.571Z,8.83
2022-10-30T22:29:13.357Z,8.87
2022-10-30T22:31:40.066Z,8.91
2022-10-30T22:34:06.672Z,8.94
2022-10-30T22:36:33.618Z,9.00
2022-10-30T22:39:02.735Z,9.05
2022-10-30T22:41:34.453Z,9.10
2022-10-30T22:44:08.028Z,9.15
2022-10-30T22:46:36.289Z,9.17
2022-10-30T22:49:03.293Z,9.23
2022-10-30T22:51:33.393Z,9.17
2022-10-30T22:54:02.081Z,9.16
2022-10-30T22:56:32.184Z,9.15
2022-10-30T22:59:02.389Z,9.35
2022-10-30T23:01:31.626Z,9.35
2022-10-30T23:04:00.656Z,9.39
2022-10-30T23:06:29.037Z,9.38
2022-10-30T23:08:58.257Z,9.25
2022-10-30T23:11:29.438Z,9.24
2022-10-30T23:13:56.801Z,9.23
2022-10-30T23:16:25.370Z,9.21
2022-10-30T23:18:54.605Z,9.20
2022-10-30T23:21:23.332Z,9.20
2022-10-30T23:23:53.238Z,9.23
2022-10-30T23:26:24.294Z,9.25
2022-10-30T23:28:53.318Z,9.28
2022-10-30T23:31:22.912Z,9.23
2022-10-30T23:33:51.072Z,9.22
2022-10-30T23:36:18.441Z,9.21
2022-10-30T23:38:45.583Z,9.18
2022-10-30T23:41:12.207Z,9.17
2022-10-30T23:43:38.870Z,9.20
2022-10-30T23:46:05.703Z,9.22
2022-10-30T23:48:32.437Z,9.22
2022-10-30T23:50:59.092Z,9.26
2022-10-30T23:53:25.733Z,9.28
2022-10-30T23:55:54.050Z,9.24
2022-10-30T23:58:21.327Z,9.27
